DK-0036 weather

Revninge Flyveplads
South Denmark, Denmark

Public forecast

Using degrees Celsius for public forecast. Weather courtesy of forecast.io.

Closest aviation weather report (METAR) to Revninge Flyveplads

Report is more than 2 hours old.

Closest report is Odense Airport, 12.1 nm (22.4 km) WNW. Retrieved 2020/04/09 14:50 UTC (3 hours ago):

EKOD 091450Z 31013KT 270V340 CAVOK 12/M01 Q1025

Closest aviation forecast (TAF) to Revninge Flyveplads

Forecast is more than 12 hours old.

Closest forecast is S√łnderborg Airport, 40.6 nm (75.3 km) SW. Retrieved 2016/01/27 09:03 UTC (4 years ago):

TAF TAF EKSB 270856Z 2709/2721 23022KT 5000 -RA BR BKN008 TEMPO 2709/2721 24025G40KT 2000 RADZ BKN004